sensor_id;sensor_type;location;lat;lon;timestamp;P1;P2;P0
74436;PMS7003;62868;52.360;30.424;2023-01-01T00:00:02;2.8;2;1.5
74436;PMS7003;62868;52.360;30.424;2023-01-01T00:04:37;2.7;1.7;1.3
74436;PMS7003;62868;52.360;30.424;2023-01-01T00:09:59;2.3;2;1.7
74436;PMS7003;62868;52.360;30.424;2023-01-01T00:14:49;1.8;1.5;1.3
74436;PMS7003;62868;52.360;30.424;2023-01-01T00:20:09;3;1.7;1
74436;PMS7003;62868;52.360;30.424;2023-01-01T00:24:41;2;1.7;1.3
74436;PMS7003;62868;52.360;30.424;2023-01-01T00:29:47;3;1.7;1
74436;PMS7003;62868;52.360;30.424;2023-01-01T00:34:47;2.3;1.8;1.5
74436;PMS7003;62868;52.360;30.424;2023-01-01T00:39:47;2;1.7;1
74436;PMS7003;62868;52.360;30.424;2023-01-01T00:45:09;2;1;1
74436;PMS7003;62868;52.360;30.424;2023-01-01T00:49:59;2;2;1
74436;PMS7003;62868;52.360;30.424;2023-01-01T00:54:39;1.8;1.8;1.5
74436;PMS7003;62868;52.360;30.424;2023-01-01T00:59:47;2;1.3;1
74436;PMS7003;62868;52.360;30.424;2023-01-01T01:04:57;3.3;3;1.7
74436;PMS7003;62868;52.360;30.424;2023-01-01T01:10:07;1.7;1.3;1.3
74436;PMS7003;62868;52.360;30.424;2023-01-01T01:14:39;2.3;2.3;1.5
74436;PMS7003;62868;52.360;30.424;2023-01-01T01:19:59;3.3;2.3;2
74436;PMS7003;62868;52.360;30.424;2023-01-01T01:25:02;3;2.7;2
74436;PMS7003;62868;52.360;30.424;2023-01-01T01:29:31;3.3;2.7;2.3
74436;PMS7003;62868;52.360;30.424;2023-01-01T01:35:07;2.5;2;1.5
74436;PMS7003;62868;52.360;30.424;2023-01-01T01:39:45;3.7;3.7;2.3
74436;PMS7003;62868;52.360;30.424;2023-01-01T01:44:48;4.7;4;3
74436;PMS7003;62868;52.360;30.424;2023-01-01T01:49:52;3.7;3;2.7
74436;PMS7003;62868;52.360;30.424;2023-01-01T01:54:59;3.5;2.5;1.8
74436;PMS7003;62868;52.360;30.424;2023-01-01T02:00:08;5;3.3;2.7
74436;PMS7003;62868;52.360;30.424;2023-01-01T02:04:31;5;3.3;2.7
74436;PMS7003;62868;52.360;30.424;2023-01-01T02:09:57;4.5;3;2.3
74436;PMS7003;62868;52.360;30.424;2023-01-01T02:15:11;3.7;3;2.7
74436;PMS7003;62868;52.360;30.424;2023-01-01T02:19:43;3.7;3;2.7
74436;PMS7003;62868;52.360;30.424;2023-01-01T02:25:15;4.3;3.8;3.3
74436;PMS7003;62868;52.360;30.424;2023-01-01T02:29:54;4.3;3.8;3.3
74436;PMS7003;62868;52.360;30.424;2023-01-01T02:34:32;4.7;4;3
74436;PMS7003;62868;52.360;30.424;2023-01-01T02:40:04;5;4;3
74436;PMS7003;62868;52.360;30.424;2023-01-01T02:45:04;4;3.3;2
74436;PMS7003;62868;52.360;30.424;2023-01-01T02:50:12;4.7;3.7;3
74436;PMS7003;62868;52.360;30.424;2023-01-01T02:54:43;4.7;3.7;3
74436;PMS7003;62868;52.360;30.424;2023-01-01T02:59:46;5;4.3;2.7
74436;PMS7003;62868;52.360;30.424;2023-01-01T03:04:44;3;2;2
74436;PMS7003;62868;52.360;30.424;2023-01-01T03:09:34;3.8;3.5;2.3
74436;PMS7003;62868;52.360;30.424;2023-01-01T03:15:00;3.7;3.7;2.7
74436;PMS7003;62868;52.360;30.424;2023-01-01T03:19:51;2.7;2;1.7
74436;PMS7003;62868;52.360;30.424;2023-01-01T03:24:32;3;2.3;2.3
74436;PMS7003;62868;52.360;30.424;2023-01-01T03:30:05;3.3;2.8;2
74436;PMS7003;62868;52.360;30.424;2023-01-01T03:35:06;4.3;2.3;1.3
74436;PMS7003;62868;52.360;30.424;2023-01-01T03:40:01;2.7;2.3;1.7
74436;PMS7003;62868;52.360;30.424;2023-01-01T03:45:02;3;2;1
74436;PMS7003;62868;52.360;30.424;2023-01-01T03:49:32;3;3;2.3
74436;PMS7003;62868;52.360;30.424;2023-01-01T03:55:07;5;3;2.3
74436;PMS7003;62868;52.360;30.424;2023-01-01T03:59:32;5;4.3;2.3
74436;PMS7003;62868;52.360;30.424;2023-01-01T04:05:11;4;2.7;2.3
74436;PMS7003;62868;52.360;30.424;2023-01-01T04:09:53;4;2.7;2.3
74436;PMS7003;62868;52.360;30.424;2023-01-01T04:14:53;2.7;2.3;1.3
74436;PMS7003;62868;52.360;30.424;2023-01-01T04:20:04;4.3;3.7;2
74436;PMS7003;62868;52.360;30.424;2023-01-01T04:25:06;2.8;2.5;1.8
74436;PMS7003;62868;52.360;30.424;2023-01-01T04:30:13;3.7;2.3;2
74436;PMS7003;62868;52.360;30.424;2023-01-01T04:34:31;3.7;2.3;2
74436;PMS7003;62868;52.360;30.424;2023-01-01T04:40:06;2.7;2.3;1.7
74436;PMS7003;62868;52.360;30.424;2023-01-01T04:44:53;4.3;3.3;2.3
74436;PMS7003;62868;52.360;30.424;2023-01-01T04:49:43;3.7;3;2.7
74436;PMS7003;62868;52.360;30.424;2023-01-01T04:55:15;2;2;1.7
74436;PMS7003;62868;52.360;30.424;2023-01-01T04:59:51;2;2;1.7
74436;PMS7003;62868;52.360;30.424;2023-01-01T05:04:53;3.8;3;2
74436;PMS7003;62868;52.360;30.424;2023-01-01T05:10:04;3.7;2.7;2
74436;PMS7003;62868;52.360;30.424;2023-01-01T05:15:01;2.3;2.3;1.7
74436;PMS7003;62868;52.360;30.424;2023-01-01T05:20:11;2;1.8;1.3
74436;PMS7003;62868;52.360;30.424;2023-01-01T05:24:31;2;1.8;1.3
74436;PMS7003;62868;52.360;30.424;2023-01-01T05:30:06;3;2.3;1.7
74436;PMS7003;62868;52.360;30.424;2023-01-01T05:34:31;3.7;2.3;1.7
74436;PMS7003;62868;52.360;30.424;2023-01-01T05:39:37;3;3;2.3
74436;PMS7003;62868;52.360;30.424;2023-01-01T05:45:11;2.3;1.7;1.3
74436;PMS7003;62868;52.360;30.424;2023-01-01T05:49:37;2.3;1.7;1.3
74436;PMS7003;62868;52.360;30.424;2023-01-01T05:54:49;2.3;2.3;1.7
74436;PMS7003;62868;52.360;30.424;2023-01-01T06:00:04;1.8;1.3;1
74436;PMS7003;62868;52.360;30.424;2023-01-01T06:05:01;2.3;2;1.3
74436;PMS7003;62868;52.360;30.424;2023-01-01T06:10:14;5;2.7;2
74436;PMS7003;62868;52.360;30.424;2023-01-01T06:14:41;5;2.7;2
74436;PMS7003;62868;52.360;30.424;2023-01-01T06:20:06;3.3;2.8;1.8
74436;PMS7003;62868;52.360;30.424;2023-01-01T06:24:53;4;3.3;2.3
74436;PMS7003;62868;52.360;30.424;2023-01-01T06:29:41;1.7;1.3;1
74436;PMS7003;62868;52.360;30.424;2023-01-01T06:35:15;2.3;2;1.8
74436;PMS7003;62868;52.360;30.424;2023-01-01T06:39:50;2.3;2;1.8
74436;PMS7003;62868;52.360;30.424;2023-01-01T06:44:41;2.7;2.3;2
74436;PMS7003;62868;52.360;30.424;2023-01-01T06:50:06;3;2.3;1.7
74436;PMS7003;62868;52.360;30.424;2023-01-01T06:55:04;3.3;2.3;1.7
74436;PMS7003;62868;52.360;30.424;2023-01-01T07:00:14;1.7;1.7;1.3
74436;PMS7003;62868;52.360;30.424;2023-01-01T07:04:51;1.7;1.7;1.3
74436;PMS7003;62868;52.360;30.424;2023-01-01T07:10:02;2;1.7;1
74436;PMS7003;62868;52.360;30.424;2023-01-01T07:14:53;3.3;1.7;1.3
74436;PMS7003;62868;52.360;30.424;2023-01-01T07:19:37;3.3;2.8;2.3
74436;PMS7003;62868;52.360;30.424;2023-01-01T07:25:10;2.3;2;1.7
74436;PMS7003;62868;52.360;30.424;2023-01-01T07:29:53;2.7;2;1.7
74436;PMS7003;62868;52.360;30.424;2023-01-01T07:34:41;2.3;2.3;2
74436;PMS7003;62868;52.360;30.424;2023-01-01T07:40:04;2.5;1.8;1.5
74436;PMS7003;62868;52.360;30.424;2023-01-01T07:44:40;2.7;2.3;1.3
74436;PMS7003;62868;52.360;30.424;2023-01-01T07:50:13;3.7;2;1.3
74436;PMS7003;62868;52.360;30.424;2023-01-01T07:54:39;2.5;1.8;1.5
74436;PMS7003;62868;52.360;30.424;2023-01-01T08:00:10;1.7;1.7;1.3
74436;PMS7003;62868;52.360;30.424;2023-01-01T08:04:49;2;1.7;1.3
74436;PMS7003;62868;52.360;30.424;2023-01-01T08:09:39;3.3;2.7;1.7
74436;PMS7003;62868;52.360;30.424;2023-01-01T08:15:12;2.3;2;1.7
74436;PMS7003;62868;52.360;30.424;2023-01-01T08:19:50;2.3;2;1.7
74436;PMS7003;62868;52.360;30.424;2023-01-01T08:25:14;2.7;2.7;1.7
74436;PMS7003;62868;52.360;30.424;2023-01-01T08:30:04;2.7;2.7;1.7
74436;PMS7003;62868;52.360;30.424;2023-01-01T08:34:51;1.8;1.8;1.3
74436;PMS7003;62868;52.360;30.424;2023-01-01T08:40:12;1.3;1;1
74436;PMS7003;62868;52.360;30.424;2023-01-01T08:44:32;1.3;1;1
74436;PMS7003;62868;52.360;30.424;2023-01-01T08:50:00;2;2;1.7
74436;PMS7003;62868;52.360;30.424;2023-01-01T08:54:52;1.8;1.5;1
74436;PMS7003;62868;52.360;30.424;2023-01-01T08:59:32;2.3;1.7;1
74436;PMS7003;62868;52.360;30.424;2023-01-01T09:05:14;1.3;1.3;1
74436;PMS7003;62868;52.360;30.424;2023-01-01T09:09:48;1.3;1.3;1
74436;PMS7003;62868;52.360;30.424;2023-01-01T09:14:40;2.8;2.3;1.8
74436;PMS7003;62868;52.360;30.424;2023-01-01T09:20:02;5.7;5;4.7
74436;PMS7003;62868;52.360;30.424;2023-01-01T09:25:00;5;4.7;4.3
74436;PMS7003;62868;52.360;30.424;2023-01-01T09:30:10;6;5.3;4.7
74436;PMS7003;62868;52.360;30.424;2023-01-01T09:34:50;6.5;6;5
74436;PMS7003;62868;52.360;30.424;2023-01-01T09:40:02;5.3;4.3;3.3
74436;PMS7003;62868;52.360;30.424;2023-01-01T09:44:55;5.3;4.3;3.3
74436;PMS7003;62868;52.360;30.424;2023-01-01T09:49:42;7.3;6.5;5.8
74436;PMS7003;62868;52.360;30.424;2023-01-01T09:55:17;6;6;4.7
74436;PMS7003;62868;52.360;30.424;2023-01-01T09:59:52;6;6;4.7
74436;PMS7003;62868;52.360;30.424;2023-01-01T10:04:35;3.7;3.7;3
74436;PMS7003;62868;52.360;30.424;2023-01-01T10:09:56;1.3;1;1
74436;PMS7003;62868;52.360;30.424;2023-01-01T10:15:03;1.7;1.7;1
74436;PMS7003;62868;52.360;30.424;2023-01-01T10:20:16;2.3;1.7;1.7
74436;PMS7003;62868;52.360;30.424;2023-01-01T10:24:35;2.3;1.7;1.7
74436;PMS7003;62868;52.360;30.424;2023-01-01T10:30:12;1.3;0.8;0.8
74436;PMS7003;62868;52.360;30.424;2023-01-01T10:34:42;1;0.3;0
74436;PMS7003;62868;52.360;30.424;2023-01-01T10:39:52;1.3;0.7;0.7
74436;PMS7003;62868;52.360;30.424;2023-01-01T10:45:16;1;1;1
74436;PMS7003;62868;52.360;30.424;2023-01-01T10:49:54;1;1;1
74436;PMS7003;62868;52.360;30.424;2023-01-01T10:54:54;1.3;1;0.7
74436;PMS7003;62868;52.360;30.424;2023-01-01T11:00:20;1.3;1;0.7
74436;PMS7003;62868;52.360;30.424;2023-01-01T11:05:15;1.3;0.7;0.3
74436;PMS7003;62868;52.360;30.424;2023-01-01T11:10:15;1.7;1.3;1
74436;PMS7003;62868;52.360;30.424;2023-01-01T11:14:36;1.7;1.3;1
74436;PMS7003;62868;52.360;30.424;2023-01-01T11:20:04;1;1;0.3
74436;PMS7003;62868;52.360;30.424;2023-01-01T11:24:58;1.3;1.3;1.3
74436;PMS7003;62868;52.360;30.424;2023-01-01T11:29:42;1.3;1;0.8
74436;PMS7003;62868;52.360;30.424;2023-01-01T11:35:16;2.7;1.3;1
74436;PMS7003;62868;52.360;30.424;2023-01-01T11:39:32;2.7;1.3;1
74436;PMS7003;62868;52.360;30.424;2023-01-01T11:44:33;0.8;0.5;0.5
74436;PMS7003;62868;52.360;30.424;2023-01-01T11:50:05;1.7;0.7;0.7
74436;PMS7003;62868;52.360;30.424;2023-01-01T11:55:10;0.7;0.7;0.3
74436;PMS7003;62868;52.360;30.424;2023-01-01T12:00:04;0.7;0.7;0.7
74436;PMS7003;62868;52.360;30.424;2023-01-01T12:04:34;1.3;1;1
74436;PMS7003;62868;52.360;30.424;2023-01-01T12:10:08;1.7;1;1
74436;PMS7003;62868;52.360;30.424;2023-01-01T12:14:55;1.7;1.3;0.7
74436;PMS7003;62868;52.360;30.424;2023-01-01T12:19:52;1.7;0.7;0.7
74436;PMS7003;62868;52.360;30.424;2023-01-01T12:25:17;1;0.7;0.7
74436;PMS7003;62868;52.360;30.424;2023-01-01T12:29:59;1;0.7;0.7
74436;PMS7003;62868;52.360;30.424;2023-01-01T12:35:04;1;0.7;0
74436;PMS7003;62868;52.360;30.424;2023-01-01T12:40:41;1;1;0.3
74436;PMS7003;62868;52.360;30.424;2023-01-01T12:45:10;1.3;0.5;0.5
74436;PMS7003;62868;52.360;30.424;2023-01-01T12:50:06;1.3;1;0.7
74436;PMS7003;62868;52.360;30.424;2023-01-01T12:54:50;1.7;1.3;1
74436;PMS7003;62868;52.360;30.424;2023-01-01T13:00:10;1;1;0.7
74436;PMS7003;62868;52.360;30.424;2023-01-01T13:05:12;1.5;1.3;0.5
74436;PMS7003;62868;52.360;30.424;2023-01-01T13:09:42;2.3;1.3;0.7
74436;PMS7003;62868;52.360;30.424;2023-01-01T13:16:13;1.3;1.3;1
74436;PMS7003;62868;52.360;30.424;2023-01-01T13:19:56;1.7;1.3;1
74436;PMS7003;62868;52.360;30.424;2023-01-01T13:25:18;1;1;1
74436;PMS7003;62868;52.360;30.424;2023-01-01T13:29:43;1;1;1
74436;PMS7003;62868;52.360;30.424;2023-01-01T13:35:19;0.7;0;0
74436;PMS7003;62868;52.360;30.424;2023-01-01T13:40:23;0.5;0.5;0.5
74436;PMS7003;62868;52.360;30.424;2023-01-01T13:44:32;1;0.3;0.3
74436;PMS7003;62868;52.360;30.424;2023-01-01T13:50:03;2;0.7;0.7
74436;PMS7003;62868;52.360;30.424;2023-01-01T13:54:55;1.3;1;0.7
74436;PMS7003;62868;52.360;30.424;2023-01-01T14:00:09;2;1.3;1
74436;PMS7003;62868;52.360;30.424;2023-01-01T14:04:50;1.3;1;1
74436;PMS7003;62868;52.360;30.424;2023-01-01T14:09:38;2;1.3;0.3
74436;PMS7003;62868;52.360;30.424;2023-01-01T14:15:14;2;1.3;1
74436;PMS7003;62868;52.360;30.424;2023-01-01T14:19:32;2;1.3;1
74436;PMS7003;62868;52.360;30.424;2023-01-01T14:24:45;1.7;1;0.7
74436;PMS7003;62868;52.360;30.424;2023-01-01T14:30:13;1;1;0.3
74436;PMS7003;62868;52.360;30.424;2023-01-01T14:34:42;1.3;1;0.7
74436;PMS7003;62868;52.360;30.424;2023-01-01T14:40:17;1.3;1.3;1
74436;PMS7003;62868;52.360;30.424;2023-01-01T14:44:52;1.3;1.3;1
74436;PMS7003;62868;52.360;30.424;2023-01-01T14:49:32;1;1;0.7
74436;PMS7003;62868;52.360;30.424;2023-01-01T14:54:32;1.7;1;0.3
74436;PMS7003;62868;52.360;30.424;2023-01-01T14:59:54;1;1;0.8
74436;PMS7003;62868;52.360;30.424;2023-01-01T15:05:27;1;0.7;0
74436;PMS7003;62868;52.360;30.424;2023-01-01T15:09:32;1;0.7;0
74436;PMS7003;62868;52.360;30.424;2023-01-01T15:15:31;0.3;0;0
74436;PMS7003;62868;52.360;30.424;2023-01-01T15:20:19;0.5;0.3;0
74436;PMS7003;62868;52.360;30.424;2023-01-01T15:24:43;0.7;0.3;0
74436;PMS7003;62868;52.360;30.424;2023-01-01T15:30:21;0.5;0.3;0.3
74436;PMS7003;62868;52.360;30.424;2023-01-01T15:35:06;0.5;0.3;0.3
74436;PMS7003;62868;52.360;30.424;2023-01-01T15:39:32;0.3;0;0
74436;PMS7003;62868;52.360;30.424;2023-01-01T15:44:54;1;1;0.3
74436;PMS7003;62868;52.360;30.424;2023-01-01T15:49:50;1;1;0
74436;PMS7003;62868;52.360;30.424;2023-01-01T15:55:14;0.8;0.5;0
74436;PMS7003;62868;52.360;30.424;2023-01-01T15:59:32;0.8;0.5;0
74436;PMS7003;62868;52.360;30.424;2023-01-01T16:05:11;1;0.7;0.3
74436;PMS7003;62868;52.360;30.424;2023-01-01T16:10:10;1.3;0.7;0.7
74436;PMS7003;62868;52.360;30.424;2023-01-01T16:14:32;1.3;1;0.3
74436;PMS7003;62868;52.360;30.424;2023-01-01T16:20:16;1.3;1;0.7
74436;PMS7003;62868;52.360;30.424;2023-01-01T16:25:11;1.3;1;0.7
74436;PMS7003;62868;52.360;30.424;2023-01-01T16:29:42;1.3;1;0
74436;PMS7003;62868;52.360;30.424;2023-01-01T16:34:42;1.7;1;1
74436;PMS7003;62868;52.360;30.424;2023-01-01T16:39:50;2;1.3;1
74436;PMS7003;62868;52.360;30.424;2023-01-01T16:45:16;1.7;1.3;1
74436;PMS7003;62868;52.360;30.424;2023-01-01T16:49:32;1.7;1.3;1
74436;PMS7003;62868;52.360;30.424;2023-01-01T16:55:04;2;1;1
74436;PMS7003;62868;52.360;30.424;2023-01-01T17:00:16;0.7;0.3;0.3
74436;PMS7003;62868;52.360;30.424;2023-01-01T17:04:44;0.7;0.3;0.3
74436;PMS7003;62868;52.360;30.424;2023-01-01T17:10:16;1;0.8;0.5
74436;PMS7003;62868;52.360;30.424;2023-01-01T17:15:06;1;0.8;0.5
74436;PMS7003;62868;52.360;30.424;2023-01-01T17:20:06;2.3;2;1
74436;PMS7003;62868;52.360;30.424;2023-01-01T17:24:42;1.7;1.3;1
74436;PMS7003;62868;52.360;30.424;2023-01-01T17:29:54;1.3;1;0.7
74436;PMS7003;62868;52.360;30.424;2023-01-01T17:35:16;2;1.3;1
74436;PMS7003;62868;52.360;30.424;2023-01-01T17:40:06;2;1.3;1
74436;PMS7003;62868;52.360;30.424;2023-01-01T17:44:56;2;1.7;1
74436;PMS7003;62868;52.360;30.424;2023-01-01T17:50:06;1.7;1.7;1.3
74436;PMS7003;62868;52.360;30.424;2023-01-01T17:54:42;2;1.3;1
74436;PMS7003;62868;52.360;30.424;2023-01-01T18:00:16;1.7;1;0.3
74436;PMS7003;62868;52.360;30.424;2023-01-01T18:05:06;1.7;1;0.3
74436;PMS7003;62868;52.360;30.424;2023-01-01T18:09:56;1;0.7;0.7
74436;PMS7003;62868;52.360;30.424;2023-01-01T18:14:54;1.3;1;0.8
74436;PMS7003;62868;52.360;30.424;2023-01-01T18:19:54;1;1;1
74436;PMS7003;62868;52.360;30.424;2023-01-01T18:25:18;2;1.3;1
74436;PMS7003;62868;52.360;30.424;2023-01-01T18:30:06;2;1.3;1
74436;PMS7003;62868;52.360;30.424;2023-01-01T18:35:06;1;0.8;0.5
74436;PMS7003;62868;52.360;30.424;2023-01-01T18:40:09;1.3;0.7;0.7
74436;PMS7003;62868;52.360;30.424;2023-01-01T18:44:42;2;1;1
74436;PMS7003;62868;52.360;30.424;2023-01-01T18:50:19;1.5;1;1
74436;PMS7003;62868;52.360;30.424;2023-01-01T18:55:10;1.5;1;1
74436;PMS7003;62868;52.360;30.424;2023-01-01T19:00:19;1;1;0.7
74436;PMS7003;62868;52.360;30.424;2023-01-01T19:04:44;1;1;0.7
74436;PMS7003;62868;52.360;30.424;2023-01-01T19:09:52;0.8;0.5;0.3
74436;PMS7003;62868;52.360;30.424;2023-01-01T19:15:17;1.7;1.3;0
74436;PMS7003;62868;52.360;30.424;2023-01-01T19:19:42;1.7;1.3;0
74436;PMS7003;62868;52.360;30.424;2023-01-01T19:24:54;1;0.7;0
74436;PMS7003;62868;52.360;30.424;2023-01-01T19:30:17;1.8;1.3;1
74436;PMS7003;62868;52.360;30.424;2023-01-01T19:34:32;2;1.3;1
74436;PMS7003;62868;52.360;30.424;2023-01-01T19:40:16;2;1.7;1
74436;PMS7003;62868;52.360;30.424;2023-01-01T19:45:06;2;1.7;1
74436;PMS7003;62868;52.360;30.424;2023-01-01T19:50:16;1.3;1;1
74436;PMS7003;62868;52.360;30.424;2023-01-01T19:54:54;1.3;1;1
74436;PMS7003;62868;52.360;30.424;2023-01-01T19:59:52;2;1;1
74436;PMS7003;62868;52.360;30.424;2023-01-01T20:05:16;1.5;0.8;0.5
74436;PMS7003;62868;52.360;30.424;2023-01-01T20:09:32;1.5;0.8;0.5
74436;PMS7003;62868;52.360;30.424;2023-01-01T20:14:42;1.3;1.3;0.7
74436;PMS7003;62868;52.360;30.424;2023-01-01T20:19:44;1;1;1
74436;PMS7003;62868;52.360;30.424;2023-01-01T20:24:42;1;1;0.7
74436;PMS7003;62868;52.360;30.424;2023-01-01T20:30:16;0.7;0.7;0.7
74436;PMS7003;62868;52.360;30.424;2023-01-01T20:34:54;0.7;0.7;0.7
74436;PMS7003;62868;52.360;30.424;2023-01-01T20:40:07;1.7;1.3;1
74436;PMS7003;62868;52.360;30.424;2023-01-01T20:44:54;1;0.7;0.7
74436;PMS7003;62868;52.360;30.424;2023-01-01T20:49:52;1.8;1;1
74436;PMS7003;62868;52.360;30.424;2023-01-01T20:55:16;1.3;1;0.3
74436;PMS7003;62868;52.360;30.424;2023-01-01T20:59:42;1.3;1;0.3
74436;PMS7003;62868;52.360;30.424;2023-01-01T21:04:42;0.8;0.8;0.5
74436;PMS7003;62868;52.360;30.424;2023-01-01T21:10:18;1.3;0.7;0.3
74436;PMS7003;62868;52.360;30.424;2023-01-01T21:14:40;1.3;0.7;0.3
74436;PMS7003;62868;52.360;30.424;2023-01-01T21:20:08;1;1;0.3
74436;PMS7003;62868;52.360;30.424;2023-01-01T21:25:11;1.3;1;0.3
74436;PMS7003;62868;52.360;30.424;2023-01-01T21:29:53;1.3;1;0.7
74436;PMS7003;62868;52.360;30.424;2023-01-01T21:34:33;1;0.7;0.3
74436;PMS7003;62868;52.360;30.424;2023-01-01T21:40:31;0.8;0.8;0.3
74436;PMS7003;62868;52.360;30.424;2023-01-01T21:45:16;1.3;0.7;0
74436;PMS7003;62868;52.360;30.424;2023-01-01T21:49:33;1.3;0.7;0
74436;PMS7003;62868;52.360;30.424;2023-01-01T21:54:56;0.7;0.7;0
74436;PMS7003;62868;52.360;30.424;2023-01-01T22:00:17;1.3;0.7;0.7
74436;PMS7003;62868;52.360;30.424;2023-01-01T22:04:33;1.3;0.7;0.7
74436;PMS7003;62868;52.360;30.424;2023-01-01T22:10:09;0.5;0;0
74436;PMS7003;62868;52.360;30.424;2023-01-01T22:15:19;0.7;0.7;0
74436;PMS7003;62868;52.360;30.424;2023-01-01T22:19:53;0.7;0.3;0
74436;PMS7003;62868;52.360;30.424;2023-01-01T22:24:32;1.3;0.5;0.3
74436;PMS7003;62868;52.360;30.424;2023-01-01T22:30:32;0.7;0.3;0.3
74436;PMS7003;62868;52.360;30.424;2023-01-01T22:35:17;0.3;0;0
74436;PMS7003;62868;52.360;30.424;2023-01-01T22:39:54;0.3;0;0
74436;PMS7003;62868;52.360;30.424;2023-01-01T22:44:55;1;0.5;0.3
74436;PMS7003;62868;52.360;30.424;2023-01-01T22:50:17;0.7;0.7;0.3
74436;PMS7003;62868;52.360;30.424;2023-01-01T22:54:38;0.7;0.7;0.3
74436;PMS7003;62868;52.360;30.424;2023-01-01T23:00:04;0.7;0.3;0.3
74436;PMS7003;62868;52.360;30.424;2023-01-01T23:04:50;0.8;0.5;0
74436;PMS7003;62868;52.360;30.424;2023-01-01T23:09:48;1.7;0.7;0.3
74436;PMS7003;62868;52.360;30.424;2023-01-01T23:14:38;1.3;1;0.3
74436;PMS7003;62868;52.360;30.424;2023-01-01T23:20:12;1;0.8;0.3
74436;PMS7003;62868;52.360;30.424;2023-01-01T23:25:15;1.7;1;0.7
74436;PMS7003;62868;52.360;30.424;2023-01-01T23:29:32;1.7;1;0.7
74436;PMS7003;62868;52.360;30.424;2023-01-01T23:35:04;1.7;1;0.3
74436;PMS7003;62868;52.360;30.424;2023-01-01T23:40:12;1;0.5;0.3
74436;PMS7003;62868;52.360;30.424;2023-01-01T23:44:38;1;0.5;0.3
74436;PMS7003;62868;52.360;30.424;2023-01-01T23:50:02;1;0.7;0.7
74436;PMS7003;62868;52.360;30.424;2023-01-01T23:55:02;1;1;0.7
74436;PMS7003;62868;52.360;30.424;2023-01-01T23:59:48;0.7;0.3;0
